»·PEaware :: QXE2096 KSEA-KALW

QXE2096 :: KSEA-KALW

FLIGHT INFORMATION

Flight Status: Arrived
Operator:
Horizon Air
More flights by this operator :: More flights under this callsign
Pilot: Henderson P. (1210)
Aircraft: DEHAVILLAND DASH 8 400
(DH8D)
More flights by this aircraft type
Origin: KSEA Seattle-Tacoma Intl
United States
Destination: KALW Walla Walla Regl
United States
More flights between these airports :: More routes between these airports
Route: SEA V2 ELN V187 PSC V520 ALW
File this flight plan on PilotEdge
Remarks:
Altitude:
(Current/Filed)
19,000ft
Speed:
(Current/Filed)
313kts
Departed: 24-Oct-18 09:07 AM
Arrived: 24-Oct-18 09:49 AM
Distance/Time
Traveled:
184nm/0:42
Distance/Time
To Go:
Arrived

Flight Plot

Page will automatically refresh every two minutes.

Flight plan parsing failed; only flown route is shown


Map Options




Map Legend


Flown Route
Filed Route
Departure Airport
Arrival Airport
Navaid (VOR, NDB)
Fix

Horizontal Profiles

Position Reports

Time Latitude Longitude Heading Altitude Ground
Speed
24-Oct-18 08:30 47.443676 -122.304368 0 440ft 0kts
24-Oct-18 08:31 47.443676 -122.304368 0 440ft 0kts
24-Oct-18 08:32 47.443676 -122.304368 0 440ft 0kts
24-Oct-18 08:33 47.443676 -122.304368 0 440ft 0kts
24-Oct-18 08:34 47.443676 -122.304368 0 440ft 0kts
24-Oct-18 08:35 47.443676 -122.304368 0 440ft 0kts
24-Oct-18 08:36 47.443676 -122.304368 0 440ft 0kts
24-Oct-18 08:37 47.443676 -122.304368 0 440ft 0kts
24-Oct-18 08:38 47.443676 -122.304368 0 440ft 0kts
24-Oct-18 08:39 47.443676 -122.304368 0 440ft 0kts
24-Oct-18 08:40 47.443676 -122.304368 0 440ft 0kts
24-Oct-18 08:41 47.443676 -122.304368 0 440ft 0kts
24-Oct-18 08:42 47.443676 -122.304368 0 440ft 0kts
24-Oct-18 08:43 47.443676 -122.304368 0 440ft 0kts
24-Oct-18 08:44 47.443676 -122.304368 0 440ft 0kts
24-Oct-18 08:45 47.443676 -122.304368 0 440ft 0kts
24-Oct-18 08:46 47.443676 -122.304368 0 440ft 0kts
24-Oct-18 08:47 47.443676 -122.304368 0 440ft 0kts
24-Oct-18 08:48 47.443676 -122.304368 0 440ft 0kts
24-Oct-18 08:49 47.443676 -122.304368 0 440ft 0kts
24-Oct-18 08:50 47.443676 -122.304368 0 440ft 0kts
24-Oct-18 08:51 47.443676 -122.304368 0 440ft 0kts
24-Oct-18 08:52 47.443676 -122.304368 0 440ft 0kts
24-Oct-18 08:53 47.443676 -122.304368 0 440ft 0kts
24-Oct-18 08:54 47.443351 -122.304382 8 440ft 2kts
24-Oct-18 08:55 47.443211 -122.305029 91 440ft 2kts
24-Oct-18 08:56 47.442898 -122.305408 0 440ft 2kts
24-Oct-18 08:57 47.442714 -122.305409 0 440ft 0kts
24-Oct-18 08:58 47.442714 -122.305409 0 440ft 0kts
24-Oct-18 08:59 47.442714 -122.305409 0 440ft 0kts
24-Oct-18 09:00 47.443631 -122.306222 324 440ft 8kts
24-Oct-18 09:01 47.448158 -122.306309 358 440ft 21kts
24-Oct-18 09:02 47.454092 -122.306231 0 440ft 20kts
24-Oct-18 09:03 47.459108 -122.306189 0 440ft 16kts
24-Oct-18 09:04 47.463213 -122.306154 358 440ft 11kts
24-Oct-18 09:05 47.463740 -122.307111 253 440ft 8kts
24-Oct-18 09:06 47.463674 -122.309467 270 440ft 0kts
24-Oct-18 09:07 47.463676 -122.309602 271 440ft 0kts
24-Oct-18 09:08 47.463636 -122.310575 251 440ft 9kts
24-Oct-18 09:09 47.442064 -122.311418 180 1079ft 145kts
24-Oct-18 09:10 47.396599 -122.312012 179 3268ft 210kts
24-Oct-18 09:11 47.339930 -122.291036 122 5977ft 235kts
24-Oct-18 09:12 47.347154 -122.196450 82 8771ft 250kts
24-Oct-18 09:13 47.355687 -122.093465 83 10974ft 265kts
24-Oct-18 09:14 47.363281 -121.985034 92 12449ft 279kts
24-Oct-18 09:15 47.342582 -121.874757 109 13874ft 286kts
24-Oct-18 09:16 47.317403 -121.761247 109 15151ft 295kts
24-Oct-18 09:17 47.291819 -121.644067 109 16294ft 302kts
24-Oct-18 09:18 47.270079 -121.544996 109 17131ft 309kts
24-Oct-18 09:19 47.238839 -121.403763 109 18297ft 313kts
24-Oct-18 09:20 47.216064 -121.301643 109 19003ft 319kts
24-Oct-18 09:21 47.181872 -121.149121 109 19107ft 353kts
24-Oct-18 09:22 47.155789 -121.032902 110 19106ft 366kts
24-Oct-18 09:23 47.123143 -120.888734 110 19099ft 375kts
24-Oct-18 09:24 47.089736 -120.742424 110 19094ft 378kts
24-Oct-18 09:25 47.056683 -120.598342 110 19092ft 380kts
24-Oct-18 09:26 47.023150 -120.453079 110 19092ft 381kts
24-Oct-18 09:27 46.991758 -120.303975 108 19092ft 381kts
24-Oct-18 09:28 46.960492 -120.154743 108 19095ft 381kts
24-Oct-18 09:29 46.928674 -120.005767 108 19095ft 382kts
24-Oct-18 09:30 46.891440 -119.862116 130 19092ft 376kts
24-Oct-18 09:31 46.812546 -119.764968 145 19097ft 370kts
24-Oct-18 09:32 46.732805 -119.668677 144 19100ft 371kts
24-Oct-18 09:33 46.652985 -119.572384 144 19112ft 371kts
24-Oct-18 09:34 46.573206 -119.476888 144 19110ft 371kts
24-Oct-18 09:35 46.493043 -119.381197 144 18846ft 375kts
24-Oct-18 09:36 46.412200 -119.285185 144 16952ft 373kts
24-Oct-18 09:37 46.335253 -119.194100 144 15234ft 355kts
24-Oct-18 09:38 46.266688 -119.097685 119 13622ft 349kts
24-Oct-18 09:39 46.237089 -118.966158 109 11939ft 343kts
24-Oct-18 09:40 46.210851 -118.845603 110 10403ft 296kts
24-Oct-18 09:41 46.185952 -118.734524 110 8991ft 285kts
24-Oct-18 09:42 46.162218 -118.627674 109 7631ft 274kts
24-Oct-18 09:43 46.139447 -118.525839 109 6309ft 262kts
24-Oct-18 09:44 46.118320 -118.431750 109 5132ft 231kts
24-Oct-18 09:45 46.133795 -118.361930 31 4056ft 198kts
24-Oct-18 09:46 46.168463 -118.331403 31 3352ft 188kts
24-Oct-18 09:47 46.184094 -118.276019 120 3178ft 170kts
24-Oct-18 09:48 46.159129 -118.234322 153 2303ft 129kts
24-Oct-18 09:49 46.126892 -118.247611 216 1823ft 124kts
24-Oct-18 09:50 46.099317 -118.276947 215 1220ft 123kts
24-Oct-18 09:51 46.084252 -118.292717 187 1199ft 10kts
24-Oct-18 09:52 46.086203 -118.288186 36 1199ft 19kts
24-Oct-18 09:53 46.087510 -118.286804 36 1199ft 1kts
24-Oct-18 09:54 46.088071 -118.285220 127 1199ft 2kts
24-Oct-18 09:55 46.088058 -118.285195 127 1198ft 0kts
24-Oct-18 09:56 46.088058 -118.285195 127 1198ft 0kts
24-Oct-18 09:57 46.088058 -118.285195 127 1198ft 0kts
24-Oct-18 09:58 46.088058 -118.285195 127 1198ft 0kts
24-Oct-18 09:59 46.088058 -118.285195 127 1198ft 0kts
24-Oct-18 10:00 46.088058 -118.285195 127 1198ft 0kts
24-Oct-18 10:01 46.088058 -118.285195 127 1198ft 0kts
24-Oct-18 10:02 46.088058 -118.285195 127 1198ft 0kts
24-Oct-18 10:03 46.088058 -118.285195 127 1198ft 0kts
24-Oct-18 10:04 46.088058 -118.285195 127 1198ft 0kts
24-Oct-18 10:05 46.088058 -118.285195 127 1198ft 0kts

Navigation Log

Ident Type
Flight plan parsing failed, navigation log unavailable